Eems Servant — PBTI — position and weather

sailwx.info

Track history (hours):
 
Tides and Currents Weather Stations Pressure Air Temp Water Temp Dewpoint Dewpoint Depression Visibility Wind Speed Wind Dir Waves Ship Positions

Eems Servant

Last reported at 2015-Jan-26 21:31 UTC. Time now 2015-Jan-26 22:33 UTC.
Position N 53°37' E 009°32'.

Length 87 m; draft 3.4 m.

Type: Cargo ship. MMSI: 246236000.

Date/timePositionNaut miles runAvg speedWind from/ knotsBaromVisibWave heightAir tempDewpointWater temp
2015-Jan-26 21:31N 53°37' E 009°32'0 0.1
2015-Jan-26 20:34N 53°37' E 009°32'0 0.0
2015-Jan-26 18:07N 53°37' E 009°32'0 0.0
2015-Jan-26 14:22N 53°37' E 009°32'0 0.0
2015-Jan-26 12:13N 53°37' E 009°32'0 0.0
2015-Jan-26 11:19N 53°37' E 009°32'0 0.0
2015-Jan-26 08:31N 53°37' E 009°32'0 0.1
2015-Jan-26 07:28N 53°37' E 009°32'0 0.1
2015-Jan-26 05:13N 53°37' E 009°32'0 0.0
2015-Jan-26 01:30N 53°37' E 009°32'0 0.0
2015-Jan-25 22:13N 53°37' E 009°32'0 0.0
2015-Jan-25 19:31N 53°37' E 009°32'0 0.0
2015-Jan-25 14:33N 53°37' E 009°32'0 0.1
2015-Jan-25 13:12N 53°37' E 009°32'0 0.0
2015-Jan-25 11:12N 53°37' E 009°32'0 0.0
2015-Jan-25 08:06N 53°37' E 009°32'0 0.1
2015-Jan-25 06:30N 53°37' E 009°32'0 0.1
2015-Jan-25 05:30N 53°37' E 009°32'0 0.0
2015-Jan-25 01:24N 53°37' E 009°32'0 0.1
2015-Jan-25 00:12N 53°37' E 009°32'0 0.0
2015-Jan-24 23:30N 53°37' E 009°32'0 0.0
2015-Jan-24 22:27N 53°37' E 009°32'0 0.0
2015-Jan-24 19:30N 53°37' E 009°32'0 0.0
2015-Jan-24 17:06N 53°37' E 009°32'0 0.0
2015-Jan-24 12:24N 53°37' E 009°32'0 0.0
2015-Jan-24 09:30N 53°37' E 009°32'0 0.0
2015-Jan-24 07:18N 53°37' E 009°32'0 0.0
2015-Jan-24 06:30N 53°37' E 009°32'0 0.1
2015-Jan-24 04:18N 53°37' E 009°32'0 0.0
2015-Jan-24 03:18N 53°37' E 009°32'0 0.0
2015-Jan-24 02:18N 53°37' E 009°32'0 0.1
2015-Jan-24 00:06N 53°37' E 009°32'0 0.0
2015-Jan-23 22:24N 53°37' E 009°32'0 0.0
2015-Jan-23 21:30N 53°37' E 009°32'0 0.1
2015-Jan-23 19:33N 53°37' E 009°32'7 7.2
2015-Jan-23 18:33N 53°34' E 009°43'8 8.4
2015-Jan-23 17:33N 53°31' E 009°57'2 2.3
2015-Jan-23 16:33N 53°29' E 009°59'4 0.6
2015-Jan-23 10:13N 53°32' E 009°55'1 0.9
2015-Jan-23 09:33N 53°32' E 009°55'1 0.5
2015-Jan-23 07:33N 53°32' E 009°53'31 7.7
2015-Jan-23 03:27N 53°53' E 009°13'17 9.0
2015-Jan-23 01:33N 53°52' E 008°44'  
2015-Jan-20 03:27N 57°44' E 011°60'33 7.8
2015-Jan-19 23:14N 58°16' E 012°15'1 0.7
2015-Jan-19 22:33N 58°16' E 012°15'2 2.1
2015-Jan-19 21:33N 58°18' E 012°18'2 0.0
2015-Jan-18 00:28N 58°16' E 012°15'4 4.3
2015-Jan-17 23:31N 58°13' E 012°10'32 6.1
2015-Jan-17 18:22N 57°42' E 011°57'6 6.9
2015-Jan-17 17:33N 57°40' E 011°47'  
Track history (hours):
 
Tides and Currents Weather Stations Pressure Air Temp Water Temp Dewpoint Dewpoint Depression Visibility Wind Speed Wind Dir Waves Ship Positions

Eems Servant

Last reported at 2015-Jan-26 21:31 UTC. Time now 2015-Jan-26 22:33 UTC.
Position N 53°37' E 009°32'.

Length 87 m; draft 3.4 m.

Type: Cargo ship. MMSI: 246236000.

Date/timePositionNaut miles runAvg speedWind from/ knotsBaromVisibWave heightAir tempDewpointWater temp
2015-Jan-26 21:31N 53°37' E 009°32'0 0.1
2015-Jan-26 20:34N 53°37' E 009°32'0 0.0
2015-Jan-26 18:07N 53°37' E 009°32'0 0.0
2015-Jan-26 14:22N 53°37' E 009°32'0 0.0
2015-Jan-26 12:13N 53°37' E 009°32'0 0.0
2015-Jan-26 11:19N 53°37' E 009°32'0 0.0
2015-Jan-26 08:31N 53°37' E 009°32'0 0.1
2015-Jan-26 07:28N 53°37' E 009°32'0 0.1
2015-Jan-26 05:13N 53°37' E 009°32'0 0.0
2015-Jan-26 01:30N 53°37' E 009°32'0 0.0
2015-Jan-25 22:13N 53°37' E 009°32'0 0.0
2015-Jan-25 19:31N 53°37' E 009°32'0 0.0
2015-Jan-25 14:33N 53°37' E 009°32'0 0.1
2015-Jan-25 13:12N 53°37' E 009°32'0 0.0
2015-Jan-25 11:12N 53°37' E 009°32'0 0.0
2015-Jan-25 08:06N 53°37' E 009°32'0 0.1
2015-Jan-25 06:30N 53°37' E 009°32'0 0.1
2015-Jan-25 05:30N 53°37' E 009°32'0 0.0
2015-Jan-25 01:24N 53°37' E 009°32'0 0.1
2015-Jan-25 00:12N 53°37' E 009°32'0 0.0
2015-Jan-24 23:30N 53°37' E 009°32'0 0.0
2015-Jan-24 22:27N 53°37' E 009°32'0 0.0
2015-Jan-24 19:30N 53°37' E 009°32'0 0.0
2015-Jan-24 17:06N 53°37' E 009°32'0 0.0
2015-Jan-24 12:24N 53°37' E 009°32'0 0.0
2015-Jan-24 09:30N 53°37' E 009°32'0 0.0
2015-Jan-24 07:18N 53°37' E 009°32'0 0.0
2015-Jan-24 06:30N 53°37' E 009°32'0 0.1
2015-Jan-24 04:18N 53°37' E 009°32'0 0.0
2015-Jan-24 03:18N 53°37' E 009°32'0 0.0
2015-Jan-24 02:18N 53°37' E 009°32'0 0.1
2015-Jan-24 00:06N 53°37' E 009°32'0 0.0
2015-Jan-23 22:24N 53°37' E 009°32'0 0.0
2015-Jan-23 21:30N 53°37' E 009°32'0 0.1
2015-Jan-23 19:33N 53°37' E 009°32'7 7.2
2015-Jan-23 18:33N 53°34' E 009°43'8 8.4
2015-Jan-23 17:33N 53°31' E 009°57'2 2.3
2015-Jan-23 16:33N 53°29' E 009°59'4 0.6
2015-Jan-23 10:13N 53°32' E 009°55'1 0.9
2015-Jan-23 09:33N 53°32' E 009°55'1 0.5
2015-Jan-23 07:33N 53°32' E 009°53'31 7.7
2015-Jan-23 03:27N 53°53' E 009°13'17 9.0
2015-Jan-23 01:33N 53°52' E 008°44'  
2015-Jan-20 03:27N 57°44' E 011°60'33 7.8
2015-Jan-19 23:14N 58°16' E 012°15'1 0.7
2015-Jan-19 22:33N 58°16' E 012°15'2 2.1
2015-Jan-19 21:33N 58°18' E 012°18'2 0.0
2015-Jan-18 00:28N 58°16' E 012°15'4 4.3
2015-Jan-17 23:31N 58°13' E 012°10'32 6.1
2015-Jan-17 18:22N 57°42' E 011°57'6 6.9
2015-Jan-17 17:33N 57°40' E 011°47'  

Dump ship's entire track history